createdAt,value
2023-05-07T00:00:06.468Z,14.50
2023-05-07T00:01:07.433Z,14.60
2023-05-07T00:02:06.816Z,14.54
2023-05-07T00:03:07.050Z,14.56
2023-05-07T00:04:07.210Z,14.57
2023-05-07T00:05:07.371Z,14.53
2023-05-07T00:06:07.435Z,14.52
2023-05-07T00:07:07.598Z,14.64
2023-05-07T00:08:08.589Z,14.57
2023-05-07T00:09:09.935Z,14.49
2023-05-07T00:10:08.226Z,14.62
2023-05-07T00:11:08.293Z,14.56
2023-05-07T00:12:08.990Z,14.53
2023-05-07T00:13:08.744Z,14.52
2023-05-07T00:14:09.926Z,14.53
2023-05-07T00:15:09.247Z,14.57
2023-05-07T00:16:09.511Z,14.56
2023-05-07T00:17:09.187Z,14.52
2023-05-07T00:18:09.338Z,14.61
2023-05-07T00:19:09.523Z,14.60
2023-05-07T00:20:09.868Z,14.53
2023-05-07T00:21:09.860Z,14.53
2023-05-07T00:22:11.946Z,14.64
2023-05-07T00:23:10.210Z,14.60
2023-05-07T00:24:10.410Z,14.56
2023-05-07T00:25:10.582Z,14.60
2023-05-07T00:26:10.743Z,14.53
2023-05-07T00:27:10.898Z,14.57
2023-05-07T00:28:11.078Z,14.46
2023-05-07T00:29:11.594Z,14.56
2023-05-07T00:30:13.561Z,14.54
2023-05-07T00:31:11.641Z,14.53
2023-05-07T00:32:11.864Z,14.54
2023-05-07T00:33:12.987Z,14.53
2023-05-07T00:34:12.376Z,14.47
2023-05-07T00:35:12.626Z,14.54
2023-05-07T00:36:14.473Z,14.56
2023-05-07T00:37:12.821Z,14.57
2023-05-07T00:38:13.001Z,14.54
2023-05-07T00:39:13.192Z,14.47
2023-05-07T00:40:14.448Z,14.52
2023-05-07T00:41:13.619Z,14.42
2023-05-07T00:42:15.438Z,14.49
2023-05-07T00:43:14.475Z,14.50
2023-05-07T00:44:14.242Z,14.49
2023-05-07T00:45:14.296Z,14.44
2023-05-07T00:46:35.529Z,14.49
2023-05-07T00:47:15.467Z,14.54
2023-05-07T00:48:15.331Z,14.52
2023-05-07T00:49:15.980Z,14.53
2023-05-07T00:50:15.211Z,14.56
2023-05-07T00:51:15.374Z,14.56
2023-05-07T00:52:15.532Z,14.60
2023-05-07T00:53:17.442Z,14.67
2023-05-07T00:54:15.800Z,14.60
2023-05-07T00:55:16.944Z,14.53
2023-05-07T00:56:16.506Z,14.57
2023-05-07T00:57:18.451Z,14.56
2023-05-07T00:58:16.451Z,14.61
2023-05-07T00:59:17.580Z,14.50
2023-05-07T01:00:17.442Z,14.61
2023-05-07T01:01:17.106Z,14.67
2023-05-07T01:02:17.154Z,14.65
2023-05-07T01:03:17.310Z,14.61
2023-05-07T01:04:17.659Z,14.61
2023-05-07T01:05:18.489Z,14.69
2023-05-07T01:06:17.892Z,14.61
2023-05-07T01:07:18.010Z,14.69
2023-05-07T01:08:18.150Z,14.64
2023-05-07T01:09:18.381Z,14.71
2023-05-07T01:10:20.453Z,14.64
2023-05-07T01:11:18.663Z,14.67
2023-05-07T01:12:18.818Z,14.64
2023-05-07T01:13:19.091Z,14.61
2023-05-07T01:14:20.485Z,14.62
2023-05-07T01:15:19.990Z,14.62
2023-05-07T01:16:19.551Z,14.60
2023-05-07T01:17:20.486Z,14.67
2023-05-07T01:18:21.465Z,14.62
2023-05-07T01:19:20.092Z,14.57
2023-05-07T01:20:20.210Z,14.53
2023-05-07T01:21:20.344Z,14.53
2023-05-07T01:22:20.483Z,14.64
2023-05-07T01:23:21.647Z,14.62
2023-05-07T01:24:20.744Z,14.60
2023-05-07T01:25:20.916Z,14.69
2023-05-07T01:26:22.954Z,14.64
2023-05-07T01:27:21.185Z,14.69
2023-05-07T01:28:21.310Z,14.67
2023-05-07T01:29:21.489Z,14.60
2023-05-07T01:30:22.356Z,14.65
2023-05-07T01:31:22.518Z,14.60
2023-05-07T01:32:22.007Z,14.61
2023-05-07T01:33:23.005Z,14.65
2023-05-07T01:34:22.372Z,14.62
2023-05-07T01:35:22.517Z,14.74
2023-05-07T01:36:22.651Z,14.68
2023-05-07T01:37:23.453Z,14.69
2023-05-07T01:38:23.484Z,14.68
2023-05-07T01:39:23.138Z,14.61
2023-05-07T01:40:23.289Z,14.61
2023-05-07T01:41:23.403Z,14.71
2023-05-07T01:42:23.539Z,14.67
2023-05-07T01:43:23.724Z,14.57
2023-05-07T01:44:23.883Z,14.57
2023-05-07T01:45:24.040Z,14.57
2023-05-07T01:46:24.313Z,14.56
2023-05-07T01:47:25.012Z,14.53
2023-05-07T01:48:24.487Z,14.56
2023-05-07T01:49:24.630Z,14.52
2023-05-07T01:50:25.456Z,14.52
2023-05-07T01:51:24.963Z,14.61
2023-05-07T01:52:25.115Z,14.57
2023-05-07T01:53:25.991Z,14.54
2023-05-07T01:54:25.406Z,14.56
2023-05-07T01:55:25.553Z,14.47
2023-05-07T01:56:25.694Z,14.50
2023-05-07T01:57:25.874Z,14.43
2023-05-07T01:58:26.020Z,14.57
2023-05-07T01:59:26.173Z,14.61
2023-05-07T02:00:27.020Z,14.50
2023-05-07T02:01:26.581Z,14.53
2023-05-07T02:02:27.682Z,14.50
2023-05-07T02:03:26.943Z,14.62
2023-05-07T02:04:27.021Z,14.50
2023-05-07T02:05:28.007Z,14.56
2023-05-07T02:06:27.396Z,14.52
2023-05-07T02:07:29.021Z,14.56
2023-05-07T02:08:27.761Z,14.54
2023-05-07T02:09:29.354Z,14.53
2023-05-07T02:10:28.087Z,14.53
2023-05-07T02:11:28.261Z,14.54
2023-05-07T02:12:28.425Z,14.52
2023-05-07T02:13:30.467Z,14.60
2023-05-07T02:14:28.829Z,14.61
2023-05-07T02:15:29.502Z,14.62
2023-05-07T02:16:30.068Z,14.64
2023-05-07T02:17:29.446Z,14.67
2023-05-07T02:18:29.683Z,14.62
2023-05-07T02:19:30.354Z,14.60
2023-05-07T02:20:29.872Z,14.56
2023-05-07T02:21:31.263Z,14.49
2023-05-07T02:22:31.219Z,14.50
2023-05-07T02:23:31.012Z,14.50
2023-05-07T02:24:30.507Z,14.43
2023-05-07T02:25:30.658Z,14.43
2023-05-07T02:26:31.016Z,14.37
2023-05-07T02:27:31.017Z,14.35
2023-05-07T02:28:32.970Z,14.31
2023-05-07T02:29:31.334Z,14.35
2023-05-07T02:30:32.857Z,14.38
2023-05-07T02:31:31.729Z,14.28
2023-05-07T02:32:31.919Z,14.31
2023-05-07T02:33:32.165Z,14.29
2023-05-07T02:34:32.190Z,14.21
2023-05-07T02:35:32.328Z,14.31
2023-05-07T02:36:33.862Z,14.28
2023-05-07T02:37:32.757Z,14.20
2023-05-07T02:38:32.917Z,14.27
2023-05-07T02:39:33.037Z,14.24
2023-05-07T02:40:33.983Z,14.19
2023-05-07T02:41:33.359Z,14.13
2023-05-07T02:42:33.505Z,14.28
2023-05-07T02:43:34.025Z,14.35
2023-05-07T02:44:34.517Z,14.32
2023-05-07T02:45:35.076Z,14.25
2023-05-07T02:46:34.208Z,14.37
2023-05-07T02:47:34.417Z,14.25
2023-05-07T02:48:36.182Z,14.32
2023-05-07T02:49:34.789Z,14.16
2023-05-07T02:50:34.924Z,14.28
2023-05-07T02:51:36.985Z,14.25
2023-05-07T02:52:35.306Z,14.21
2023-05-07T02:53:35.399Z,14.13
2023-05-07T02:54:35.559Z,14.20
2023-05-07T02:55:35.697Z,14.29
2023-05-07T02:56:35.812Z,14.27
2023-05-07T02:57:36.527Z,14.29
2023-05-07T02:58:36.160Z,14.21
2023-05-07T02:59:36.526Z,14.27
2023-05-07T03:00:36.410Z,14.24
2023-05-07T03:01:37.126Z,14.19
2023-05-07T03:02:36.772Z,14.17
2023-05-07T03:03:37.496Z,14.19
2023-05-07T03:04:37.457Z,14.21
2023-05-07T03:05:38.051Z,14.17
2023-05-07T03:06:37.575Z,14.21
2023-05-07T03:07:39.484Z,14.16
2023-05-07T03:08:37.836Z,14.29
2023-05-07T03:09:38.483Z,14.28
2023-05-07T03:10:38.984Z,14.17
2023-05-07T03:11:41.496Z,14.21
2023-05-07T03:12:39.989Z,14.13
2023-05-07T03:13:38.732Z,14.25
2023-05-07T03:14:40.372Z,14.16
2023-05-07T03:15:40.985Z,14.14
2023-05-07T03:16:40.415Z,14.20
2023-05-07T03:17:41.553Z,14.28
2023-05-07T03:18:40.476Z,14.35
2023-05-07T03:19:39.842Z,14.20
2023-05-07T03:20:40.636Z,14.32
2023-05-07T03:21:40.135Z,14.17
2023-05-07T03:22:40.398Z,14.29
2023-05-07T03:23:41.989Z,14.20
2023-05-07T03:24:42.483Z,14.31
2023-05-07T03:25:41.487Z,14.21
2023-05-07T03:26:41.086Z,14.13
2023-05-07T03:27:41.233Z,14.20
2023-05-07T03:28:41.365Z,14.16
2023-05-07T03:29:41.515Z,14.19
2023-05-07T03:30:41.654Z,14.21
2023-05-07T03:31:41.873Z,14.29
2023-05-07T03:32:41.983Z,14.21
2023-05-07T03:33:42.123Z,14.24
2023-05-07T03:34:44.497Z,14.29
2023-05-07T03:35:42.459Z,14.28
2023-05-07T03:36:42.691Z,14.27
2023-05-07T03:37:42.825Z,14.32
2023-05-07T03:38:42.985Z,14.31
2023-05-07T03:39:43.172Z,14.28
2023-05-07T03:40:43.321Z,14.35
2023-05-07T03:41:43.513Z,14.35
2023-05-07T03:42:44.486Z,14.34
2023-05-07T03:43:43.868Z,14.37
2023-05-07T03:44:45.985Z,14.39
2023-05-07T03:45:44.195Z,14.35
2023-05-07T03:46:45.083Z,14.42
2023-05-07T03:47:45.587Z,14.37
2023-05-07T03:48:44.743Z,14.31
2023-05-07T03:49:45.530Z,14.34
2023-05-07T03:50:45.121Z,14.34
2023-05-07T03:51:45.684Z,14.32
2023-05-07T03:52:45.322Z,14.35
2023-05-07T03:53:45.493Z,14.34
2023-05-07T03:54:46.495Z,14.32
2023-05-07T03:55:47.004Z,14.38
2023-05-07T03:56:46.039Z,14.42
2023-05-07T03:57:46.994Z,14.44
2023-05-07T03:58:46.414Z,14.42
2023-05-07T03:59:47.494Z,14.39
2023-05-07T04:00:47.499Z,14.29
2023-05-07T04:01:46.948Z,14.35
2023-05-07T04:02:48.128Z,14.39
2023-05-07T04:03:47.408Z,14.37
2023-05-07T04:04:47.466Z,14.47
2023-05-07T04:05:47.682Z,14.39
2023-05-07T04:06:47.868Z,14.44
2023-05-07T04:07:48.017Z,14.46
2023-05-07T04:08:48.140Z,14.47
2023-05-07T04:09:48.399Z,14.47
2023-05-07T04:10:48.531Z,14.46
2023-05-07T04:11:48.725Z,14.38
2023-05-07T04:12:49.589Z,14.47
2023-05-07T04:13:49.136Z,14.43
2023-05-07T04:14:49.275Z,14.50
2023-05-07T04:15:49.999Z,14.50
2023-05-07T04:16:49.699Z,14.49
2023-05-07T04:17:49.869Z,14.50
2023-05-07T04:18:49.947Z,14.43
2023-05-07T04:19:50.119Z,14.50
2023-05-07T04:20:50.558Z,14.38
2023-05-07T04:21:50.577Z,14.47
2023-05-07T04:22:51.502Z,14.50
2023-05-07T04:23:50.741Z,14.43
2023-05-07T04:24:50.884Z,14.46
2023-05-07T04:25:51.074Z,14.50
2023-05-07T04:26:51.232Z,14.52
2023-05-07T04:27:51.402Z,14.54
2023-05-07T04:28:51.597Z,14.53
2023-05-07T04:29:51.741Z,14.57
2023-05-07T04:30:51.877Z,14.53
2023-05-07T04:31:53.572Z,14.54
2023-05-07T04:32:53.578Z,14.56
2023-05-07T04:33:52.360Z,14.52
2023-05-07T04:34:52.506Z,14.64
2023-05-07T04:35:52.671Z,14.60
2023-05-07T04:36:55.095Z,14.54
2023-05-07T04:37:53.041Z,14.69
2023-05-07T04:38:53.560Z,14.64
2023-05-07T04:39:53.317Z,14.57
2023-05-07T04:40:53.478Z,14.62
2023-05-07T04:41:53.661Z,14.68
2023-05-07T04:42:53.822Z,14.64
2023-05-07T04:43:54.549Z,14.62
2023-05-07T04:44:54.178Z,14.54
2023-05-07T04:45:54.355Z,14.54
2023-05-07T04:46:54.562Z,14.39
2023-05-07T04:47:54.697Z,14.42
2023-05-07T04:48:54.837Z,14.25
2023-05-07T04:49:55.566Z,14.17
2023-05-07T04:50:56.048Z,14.25
2023-05-07T04:51:55.308Z,14.19
2023-05-07T04:52:55.533Z,14.31
2023-05-07T04:53:56.502Z,14.27
2023-05-07T04:54:56.510Z,14.29
2023-05-07T04:55:56.548Z,14.34
2023-05-07T04:56:56.187Z,14.39
2023-05-07T04:57:56.332Z,14.32
2023-05-07T04:58:56.501Z,14.31
2023-05-07T04:59:56.649Z,14.35
2023-05-07T05:00:57.652Z,14.32
2023-05-07T05:01:57.575Z,14.20
2023-05-07T05:02:58.098Z,14.32
2023-05-07T05:03:59.048Z,14.21
2023-05-07T05:04:57.483Z,14.24
2023-05-07T05:05:57.621Z,14.31
2023-05-07T05:06:57.766Z,14.25
2023-05-07T05:07:57.946Z,14.37
2023-05-07T05:08:58.215Z,14.34
2023-05-07T05:09:59.013Z,14.28
2023-05-07T05:10:58.396Z,14.28
2023-05-07T05:11:58.585Z,14.35
2023-05-07T05:13:00.042Z,14.39
2023-05-07T05:13:58.940Z,14.35
2023-05-07T05:14:59.106Z,14.38
2023-05-07T05:15:59.444Z,14.29
2023-05-07T05:16:59.425Z,14.31
2023-05-07T05:18:00.163Z,14.34
2023-05-07T05:18:59.732Z,14.38
2023-05-07T05:20:00.535Z,14.44
2023-05-07T05:21:00.033Z,14.38
2023-05-07T05:22:00.196Z,14.52
2023-05-07T05:23:00.323Z,14.39
2023-05-07T05:24:00.451Z,14.39
2023-05-07T05:25:01.614Z,14.37
2023-05-07T05:26:01.596Z,14.34
2023-05-07T05:27:01.912Z,14.47
2023-05-07T05:28:01.146Z,14.42
2023-05-07T05:29:01.331Z,14.54
2023-05-07T05:30:01.446Z,14.44
2023-05-07T05:31:03.106Z,14.53
2023-05-07T05:32:02.064Z,14.53
2023-05-07T05:33:02.166Z,14.61
2023-05-07T05:34:02.134Z,14.54
2023-05-07T05:35:04.541Z,14.64
2023-05-07T05:36:02.480Z,14.64
2023-05-07T05:37:02.611Z,14.53
2023-05-07T05:38:03.530Z,14.60
2023-05-07T05:39:03.567Z,14.56
2023-05-07T05:40:03.076Z,14.52
2023-05-07T05:41:03.236Z,14.44
2023-05-07T05:42:04.070Z,14.52
2023-05-07T05:43:03.601Z,14.52
2023-05-07T05:44:03.739Z,14.50
2023-05-07T05:45:04.081Z,14.56
2023-05-07T05:46:04.138Z,14.60
2023-05-07T05:47:05.527Z,14.67
2023-05-07T05:48:04.515Z,14.64
2023-05-07T05:49:04.699Z,14.71
2023-05-07T05:50:04.868Z,14.75
2023-05-07T05:51:05.116Z,14.78
2023-05-07T05:52:05.269Z,14.90
2023-05-07T05:53:06.064Z,14.99
2023-05-07T05:54:05.585Z,15.06
2023-05-07T05:55:05.771Z,15.17
2023-05-07T05:56:06.009Z,15.30
2023-05-07T05:57:06.135Z,15.30
2023-05-07T05:58:06.265Z,15.35
2023-05-07T05:59:07.097Z,15.39
2023-05-07T06:00:06.587Z,15.38
2023-05-07T06:01:06.779Z,15.36
2023-05-07T06:02:07.576Z,15.43
2023-05-07T06:03:07.167Z,15.43
2023-05-07T06:04:07.226Z,15.46
2023-05-07T06:05:07.385Z,15.48
2023-05-07T06:06:08.078Z,15.52
2023-05-07T06:07:09.033Z,15.67
2023-05-07T06:08:07.922Z,15.72
2023-05-07T06:09:08.091Z,15.76
2023-05-07T06:10:09.122Z,15.81
2023-05-07T06:11:09.493Z,15.94
2023-05-07T06:12:10.493Z,16.01
2023-05-07T06:13:08.858Z,16.09
2023-05-07T06:14:09.038Z,16.16
2023-05-07T06:15:09.207Z,16.06
2023-05-07T06:16:10.067Z,16.18
2023-05-07T06:17:11.049Z,16.20
2023-05-07T06:18:09.884Z,16.41
2023-05-07T06:19:10.546Z,16.56
2023-05-07T06:20:31.016Z,16.77
2023-05-07T06:21:11.661Z,17.08
2023-05-07T06:22:10.386Z,17.08
2023-05-07T06:23:10.562Z,16.96
2023-05-07T06:24:10.714Z,16.93
2023-05-07T06:25:11.572Z,16.83
2023-05-07T06:26:11.577Z,16.78
2023-05-07T06:27:11.191Z,16.95
2023-05-07T06:28:11.413Z,17.07
2023-05-07T06:29:11.708Z,17.00
2023-05-07T06:30:12.009Z,17.07
2023-05-07T06:31:11.989Z,17.18
2023-05-07T06:32:12.266Z,17.17
2023-05-07T06:33:12.283Z,17.13
2023-05-07T06:34:12.426Z,16.96
2023-05-07T06:35:12.547Z,16.95
2023-05-07T06:36:12.683Z,16.96
2023-05-07T06:37:13.546Z,16.85
2023-05-07T06:38:13.009Z,16.74
2023-05-07T06:39:13.217Z,16.77
2023-05-07T06:40:14.552Z,16.95
2023-05-07T06:41:13.613Z,16.96
2023-05-07T06:42:13.962Z,17.06
2023-05-07T06:43:15.046Z,17.11
2023-05-07T06:44:15.048Z,17.28
2023-05-07T06:45:14.605Z,17.15
2023-05-07T06:46:14.634Z,17.14
2023-05-07T06:47:16.052Z,17.25
2023-05-07T06:48:16.043Z,17.35
2023-05-07T06:49:36.980Z,17.25
2023-05-07T06:50:16.608Z,17.23
2023-05-07T06:51:16.548Z,17.11
2023-05-07T06:52:16.552Z,17.22
2023-05-07T06:53:16.596Z,17.43
2023-05-07T06:54:17.108Z,17.73
2023-05-07T06:55:16.355Z,17.71
2023-05-07T06:56:16.627Z,17.81
2023-05-07T06:57:16.721Z,17.89
2023-05-07T06:58:16.861Z,17.97
2023-05-07T06:59:17.122Z,18.13
2023-05-07T07:00:18.100Z,18.18
2023-05-07T07:01:17.662Z,18.40
2023-05-07T07:02:18.688Z,18.61
2023-05-07T07:03:19.569Z,18.86
2023-05-07T07:04:17.967Z,19.05
2023-05-07T07:05:19.055Z,19.38
2023-05-07T07:06:18.304Z,19.18
2023-05-07T07:07:18.469Z,19.24
2023-05-07T07:08:18.656Z,19.40
2023-05-07T07:09:21.586Z,19.21
2023-05-07T07:10:18.995Z,19.11
2023-05-07T07:11:19.612Z,19.06
2023-05-07T07:12:19.438Z,19.15
2023-05-07T07:13:19.662Z,19.25
2023-05-07T07:14:20.554Z,19.29
2023-05-07T07:15:19.936Z,19.33
2023-05-07T07:16:20.152Z,19.25
2023-05-07T07:17:22.025Z,19.17
2023-05-07T07:18:20.616Z,18.99
2023-05-07T07:19:20.639Z,18.97
2023-05-07T07:20:20.791Z,19.01
2023-05-07T07:21:20.935Z,19.14
2023-05-07T07:22:22.053Z,19.10
2023-05-07T07:23:22.062Z,19.21
2023-05-07T07:24:23.564Z,19.25
2023-05-07T07:25:21.663Z,19.24
2023-05-07T07:26:21.822Z,19.10
2023-05-07T07:27:21.969Z,19.02
2023-05-07T07:28:22.187Z,18.98
2023-05-07T07:29:22.318Z,18.84
2023-05-07T07:30:24.082Z,18.65
2023-05-07T07:31:22.808Z,18.65
2023-05-07T07:32:24.017Z,18.73
2023-05-07T07:33:23.154Z,18.79
2023-05-07T07:34:23.371Z,18.77
2023-05-07T07:35:25.627Z,18.79
2023-05-07T07:36:32.105Z,18.77
2023-05-07T07:37:24.773Z,18.84
2023-05-07T07:38:23.985Z,18.94
2023-05-07T07:39:24.145Z,18.98
2023-05-07T07:40:24.414Z,19.06
2023-05-07T07:41:24.466Z,18.94
2023-05-07T07:42:24.616Z,18.92
2023-05-07T07:43:26.587Z,19.13
2023-05-07T07:44:25.608Z,19.11
2023-05-07T07:45:25.092Z,19.21
2023-05-07T07:46:25.227Z,18.84
2023-05-07T07:47:25.434Z,18.80
2023-05-07T07:48:26.645Z,18.73
2023-05-07T07:49:25.775Z,18.79
2023-05-07T07:50:42.939Z,18.82
2023-05-07T07:51:29.110Z,18.77
2023-05-07T07:52:27.065Z,18.67
2023-05-07T07:53:27.101Z,18.43
2023-05-07T07:54:27.624Z,18.25
2023-05-07T07:55:26.880Z,18.10
2023-05-07T07:56:27.008Z,17.99
2023-05-07T07:57:27.617Z,17.99
2023-05-07T07:58:27.354Z,18.00
2023-05-07T07:59:28.159Z,18.10
2023-05-07T08:00:27.760Z,18.02
2023-05-07T08:01:27.907Z,17.91
2023-05-07T08:02:28.130Z,17.91
2023-05-07T08:03:28.291Z,18.00
2023-05-07T08:04:28.430Z,17.91
2023-05-07T08:05:29.572Z,18.02
2023-05-07T08:06:28.798Z,17.91
2023-05-07T08:07:29.130Z,18.02
2023-05-07T08:08:29.160Z,17.95
2023-05-07T08:09:29.310Z,17.97
2023-05-07T08:10:29.457Z,17.94
2023-05-07T08:11:29.617Z,18.06
2023-05-07T08:12:29.801Z,17.91
2023-05-07T08:13:30.001Z,17.95
2023-05-07T08:14:31.202Z,18.06
2023-05-07T08:15:31.584Z,17.89
2023-05-07T08:16:31.315Z,18.03
2023-05-07T08:17:30.715Z,18.02
2023-05-07T08:18:30.773Z,18.17
2023-05-07T08:19:30.952Z,18.19
2023-05-07T08:20:31.158Z,18.42
2023-05-07T08:21:32.469Z,18.54
2023-05-07T08:22:31.491Z,18.50
2023-05-07T08:23:32.582Z,18.39
2023-05-07T08:24:31.833Z,18.39
2023-05-07T08:25:31.971Z,18.58
2023-05-07T08:26:32.115Z,18.54
2023-05-07T08:27:32.269Z,18.55
2023-05-07T08:28:32.423Z,18.52
2023-05-07T08:29:33.180Z,18.58
2023-05-07T08:30:32.824Z,18.72
2023-05-07T08:31:32.992Z,18.84
2023-05-07T08:32:33.658Z,18.86
2023-05-07T08:33:35.130Z,18.82
2023-05-07T08:34:33.502Z,18.83
2023-05-07T08:35:33.692Z,18.83
2023-05-07T08:36:33.857Z,18.76
2023-05-07T08:37:34.046Z,18.76
2023-05-07T08:38:34.661Z,18.76
2023-05-07T08:39:34.437Z,18.99
2023-05-07T08:40:35.092Z,19.06
2023-05-07T08:41:34.717Z,18.98
2023-05-07T08:42:34.876Z,18.87
2023-05-07T08:43:35.634Z,18.73
2023-05-07T08:44:35.492Z,18.77
2023-05-07T08:45:35.353Z,18.83
2023-05-07T08:46:35.537Z,18.84
2023-05-07T08:47:35.722Z,18.90
2023-05-07T08:48:35.871Z,18.87
2023-05-07T08:49:36.056Z,18.76
2023-05-07T08:50:37.133Z,18.80
2023-05-07T08:51:36.409Z,18.95
2023-05-07T08:52:36.526Z,19.01
2023-05-07T08:53:38.628Z,19.06
2023-05-07T08:54:37.593Z,19.17
2023-05-07T08:55:37.094Z,19.42
2023-05-07T08:56:38.112Z,19.48
2023-05-07T08:57:40.046Z,19.50
2023-05-07T08:58:38.099Z,19.39
2023-05-07T08:59:37.720Z,19.31
2023-05-07T09:00:37.935Z,19.51
2023-05-07T09:01:38.127Z,19.55
2023-05-07T09:02:38.203Z,19.43
2023-05-07T09:03:39.179Z,19.54
2023-05-07T09:04:38.612Z,19.42
2023-05-07T09:05:39.633Z,19.68
2023-05-07T09:06:38.885Z,19.84
2023-05-07T09:07:39.642Z,20.06
2023-05-07T09:08:39.156Z,19.83
2023-05-07T09:09:40.142Z,19.72
2023-05-07T09:10:39.643Z,19.58
2023-05-07T09:11:39.780Z,19.43
2023-05-07T09:12:39.952Z,19.35
2023-05-07T09:13:40.132Z,19.73
2023-05-07T09:14:41.143Z,19.90
2023-05-07T09:15:40.548Z,19.84
2023-05-07T09:16:40.754Z,19.78
2023-05-07T09:17:40.850Z,19.66
2023-05-07T09:18:43.113Z,19.54
2023-05-07T09:19:42.103Z,19.58
2023-05-07T09:20:42.099Z,19.72
2023-05-07T09:21:41.650Z,19.80
2023-05-07T09:22:42.630Z,19.84
2023-05-07T09:23:41.866Z,19.87
2023-05-07T09:24:42.013Z,19.78
2023-05-07T09:25:43.129Z,19.78
2023-05-07T09:26:42.385Z,19.72
2023-05-07T09:27:42.523Z,19.70
2023-05-07T09:28:43.651Z,19.50
2023-05-07T09:29:43.618Z,19.60
2023-05-07T09:30:43.713Z,19.61
2023-05-07T09:31:43.346Z,19.70
2023-05-07T09:32:43.411Z,19.94
2023-05-07T09:33:43.467Z,20.41
2023-05-07T09:34:43.591Z,20.59
2023-05-07T09:35:44.162Z,20.33
2023-05-07T09:36:44.687Z,20.42
2023-05-07T09:37:45.156Z,20.21
2023-05-07T09:38:44.372Z,20.05
2023-05-07T09:39:44.529Z,19.87
2023-05-07T09:40:45.182Z,19.88
2023-05-07T09:41:45.617Z,20.06
2023-05-07T09:42:45.109Z,19.88
2023-05-07T09:43:45.248Z,19.63
2023-05-07T09:44:45.377Z,19.61
2023-05-07T09:45:45.698Z,19.65
2023-05-07T09:46:45.810Z,19.86
2023-05-07T09:47:46.680Z,19.79
2023-05-07T09:48:46.169Z,19.78
2023-05-07T09:49:46.191Z,19.80
2023-05-07T09:50:46.330Z,19.78
2023-05-07T09:51:46.484Z,19.91
2023-05-07T09:52:46.648Z,19.88
2023-05-07T09:53:48.113Z,20.00
2023-05-07T09:54:47.752Z,20.13
2023-05-07T09:55:48.175Z,20.23
2023-05-07T09:56:49.126Z,20.12
2023-05-07T09:57:49.122Z,20.03
2023-05-07T09:58:48.634Z,20.13
2023-05-07T09:59:48.182Z,20.59
2023-05-07T10:00:48.164Z,20.86
2023-05-07T10:01:49.319Z,21.06
2023-05-07T10:02:48.551Z,20.61
2023-05-07T10:03:49.847Z,20.28
2023-05-07T10:04:49.625Z,20.00
2023-05-07T10:05:48.930Z,19.95
2023-05-07T10:06:49.093Z,19.94
2023-05-07T10:07:50.121Z,19.80
2023-05-07T10:08:49.513Z,19.66
2023-05-07T10:09:49.672Z,19.60
2023-05-07T10:10:50.632Z,19.69
2023-05-07T10:11:50.026Z,19.70
2023-05-07T10:12:50.228Z,19.60
2023-05-07T10:13:50.422Z,19.60
2023-05-07T10:14:51.402Z,19.70
2023-05-07T10:15:50.822Z,19.76
2023-05-07T10:16:50.990Z,19.79
2023-05-07T10:17:51.338Z,19.75
2023-05-07T10:18:51.376Z,19.70
2023-05-07T10:19:51.544Z,19.80
2023-05-07T10:20:55.148Z,20.09
2023-05-07T10:21:51.889Z,20.05
2023-05-07T10:22:54.126Z,19.88
2023-05-07T10:23:53.629Z,19.97
2023-05-07T10:24:52.415Z,19.90
2023-05-07T10:25:57.263Z,19.87
2023-05-07T10:26:53.735Z,19.86
2023-05-07T10:27:52.872Z,19.75
2023-05-07T10:28:53.050Z,19.76
2023-05-07T10:29:54.127Z,19.66
2023-05-07T10:30:53.384Z,19.84
2023-05-07T10:31:53.554Z,19.95
2023-05-07T10:32:54.876Z,20.02
2023-05-07T10:33:53.878Z,20.25
2023-05-07T10:34:54.043Z,20.30
2023-05-07T10:35:54.156Z,20.24
2023-05-07T10:36:55.193Z,20.23
2023-05-07T10:37:56.137Z,20.25
2023-05-07T10:38:54.759Z,20.27
2023-05-07T10:39:55.637Z,20.23
2023-05-07T10:40:55.060Z,20.41
2023-05-07T10:41:55.228Z,20.39
2023-05-07T10:42:56.184Z,20.28
2023-05-07T10:43:56.205Z,20.24
2023-05-07T10:44:55.754Z,20.21
2023-05-07T10:45:56.668Z,20.16
2023-05-07T10:46:56.189Z,20.06
2023-05-07T10:47:56.244Z,19.91
2023-05-07T10:48:56.479Z,19.86
2023-05-07T10:49:57.191Z,19.97
2023-05-07T10:50:57.641Z,20.08
2023-05-07T10:51:57.005Z,20.16
2023-05-07T10:52:58.141Z,20.12
2023-05-07T10:53:57.297Z,20.16
2023-05-07T10:54:58.184Z,20.12
2023-05-07T10:55:58.188Z,20.06
2023-05-07T10:56:58.682Z,19.97
2023-05-07T10:57:58.197Z,19.93
2023-05-07T10:58:58.684Z,19.93
2023-05-07T10:59:59.353Z,19.94
2023-05-07T11:01:00.142Z,19.87
2023-05-07T11:01:59.381Z,19.70
2023-05-07T11:02:59.256Z,19.65
2023-05-07T11:03:59.777Z,19.65
2023-05-07T11:04:59.299Z,19.63
2023-05-07T11:06:00.181Z,19.60
2023-05-07T11:06:59.537Z,19.61
2023-05-07T11:08:00.199Z,19.68
2023-05-07T11:08:59.827Z,19.55
2023-05-07T11:10:00.002Z,19.43
2023-05-07T11:11:00.205Z,19.48
2023-05-07T11:12:00.343Z,19.39
2023-05-07T11:13:00.518Z,19.43
2023-05-07T11:14:00.696Z,19.47
2023-05-07T11:15:00.834Z,19.38
2023-05-07T11:16:01.643Z,19.42
2023-05-07T11:17:02.640Z,19.47
2023-05-07T11:18:01.755Z,19.36
2023-05-07T11:19:01.615Z,19.39
2023-05-07T11:20:01.818Z,19.38
2023-05-07T11:21:03.663Z,19.43
2023-05-07T11:22:02.659Z,19.47
2023-05-07T11:23:02.294Z,19.43
2023-05-07T11:24:02.445Z,19.47
2023-05-07T11:25:04.167Z,19.40
2023-05-07T11:26:04.554Z,19.38
2023-05-07T11:27:02.904Z,19.43
2023-05-07T11:28:03.080Z,19.39
2023-05-07T11:29:05.150Z,19.50
2023-05-07T11:30:03.374Z,19.55
2023-05-07T11:31:04.189Z,19.55
2023-05-07T11:32:03.854Z,19.63
2023-05-07T11:33:03.889Z,19.55
2023-05-07T11:34:03.968Z,19.60
2023-05-07T11:35:05.741Z,19.58
2023-05-07T11:36:05.213Z,19.60
2023-05-07T11:37:04.597Z,19.61
2023-05-07T11:38:04.761Z,19.58
2023-05-07T11:39:06.659Z,19.69
2023-05-07T11:40:05.141Z,19.73
2023-05-07T11:41:05.306Z,19.76
2023-05-07T11:42:05.544Z,19.88
2023-05-07T11:43:05.706Z,19.98
2023-05-07T11:44:06.224Z,20.06
2023-05-07T11:45:05.992Z,19.94
2023-05-07T11:46:06.242Z,20.02
2023-05-07T11:47:06.309Z,20.06
2023-05-07T11:48:07.238Z,19.93
2023-05-07T11:49:06.674Z,19.69
2023-05-07T11:50:06.925Z,19.53
2023-05-07T11:51:07.017Z,19.70
2023-05-07T11:52:07.190Z,19.75
2023-05-07T11:53:07.370Z,19.86
2023-05-07T11:54:07.543Z,19.93
2023-05-07T11:55:07.729Z,19.88
2023-05-07T11:56:08.700Z,19.78
2023-05-07T11:57:09.547Z,19.90
2023-05-07T11:58:10.751Z,19.93
2023-05-07T11:59:08.484Z,19.93
2023-05-07T12:00:08.709Z,19.90
2023-05-07T12:01:08.781Z,19.78
2023-05-07T12:02:09.069Z,19.88
2023-05-07T12:03:10.373Z,19.79
2023-05-07T12:04:09.571Z,19.68
2023-05-07T12:05:10.516Z,19.55
2023-05-07T12:06:09.816Z,19.53
2023-05-07T12:07:10.264Z,19.47
2023-05-07T12:08:10.206Z,19.47
2023-05-07T12:09:10.435Z,19.43
2023-05-07T12:10:10.632Z,19.25
2023-05-07T12:11:11.732Z,19.14
2023-05-07T12:12:11.227Z,19.11
2023-05-07T12:13:11.711Z,19.06
2023-05-07T12:14:12.498Z,19.10
2023-05-07T12:15:12.741Z,19.06
2023-05-07T12:16:11.661Z,19.13
2023-05-07T12:17:12.596Z,19.24
2023-05-07T12:18:12.092Z,19.31
2023-05-07T12:19:13.750Z,19.32
2023-05-07T12:20:12.386Z,19.35
2023-05-07T12:21:12.640Z,19.28
2023-05-07T12:22:14.180Z,19.24
2023-05-07T12:23:13.761Z,19.23
2023-05-07T12:24:15.693Z,19.38
2023-05-07T12:25:13.595Z,19.48
2023-05-07T12:26:13.479Z,19.48
2023-05-07T12:27:14.220Z,19.43
2023-05-07T12:28:14.679Z,19.54
2023-05-07T12:29:14.610Z,19.51
2023-05-07T12:30:15.245Z,19.66
2023-05-07T12:31:15.305Z,19.61
2023-05-07T12:32:14.712Z,19.91
2023-05-07T12:33:14.858Z,19.95
2023-05-07T12:34:15.809Z,19.93
2023-05-07T12:35:15.196Z,19.94
2023-05-07T12:36:15.346Z,20.06
2023-05-07T12:37:16.236Z,19.84
2023-05-07T12:38:16.566Z,19.84
2023-05-07T12:39:16.718Z,19.70
2023-05-07T12:40:15.992Z,19.70
2023-05-07T12:41:16.152Z,19.63
2023-05-07T12:42:17.243Z,19.57
2023-05-07T12:43:17.184Z,19.54
2023-05-07T12:44:16.692Z,19.42
2023-05-07T12:45:17.496Z,19.33
2023-05-07T12:46:18.722Z,19.23
2023-05-07T12:47:17.227Z,19.05
2023-05-07T12:48:17.385Z,19.14
2023-05-07T12:49:19.075Z,19.05
2023-05-07T12:50:17.685Z,19.13
2023-05-07T12:51:17.872Z,18.97
2023-05-07T12:52:18.733Z,18.94
2023-05-07T12:53:18.155Z,18.87
2023-05-07T12:54:19.228Z,18.83